Triumph, IL (61371)

12:00 AM CDT on September 01, 2016 (GMT -0500)
Dimmick | | Change Station
Active Advisory: Flood Warning

Elev 659 ft 41.44 °N, 89.11 °W | Updated 2 minutes ago

Clear
Clear
58.5 °F
Feels Like 58.5 °F
N
1.1
Wind Variable Wind from NNE

Today
High -- | Low -- °F
--% Chance of Precip.
Yesterday
High -- | Low -- °F
Precip. -- in
Pressure 30.13 in
Visibility 10.0 miles
Clouds Clear
Dew Point 58 °F
Humidity 99%
Rainfall in
Snow Depth Not available.
6:22 AM 7:28 PM
Waning Crescent, 0% visible
METAR KVYS 010455Z AUTO 00000KT 10SM CLR 17/15 A3013 RMK AO2 T01700150
Pressure 30.13 in
Visibility 10.0 miles
Clouds Clear
Dew Point 58 °F
Humidity 99%
Rainfall in
Snow Depth Not available.
6:22 AM 7:28 PM
Waning Crescent, 0% visible
METAR KVYS 010455Z AUTO 00000KT 10SM CLR 17/15 A3013 RMK AO2 T01700150

10-Day Weather Forecast

Almanac

Astronomy

Sep. 01, 2016 Rise Set
Actual Time
Civil Twilight
Nautical Twilight
Astronomical Twilight
Moon
Length of Visible Light
Length of Day
Tomorrow will be .
, % of the Moon is Illuminated

Today's Extremes

State Highs State Lows

Community

WunderPhotos

Upload Photos

1,936,313 photos uploaded!

WunderBlog® & News

Nearby

Air Quality

  Air Quality AQ Index Pollutant
Not available.

Snow Depth

Station Depth Elevation

Earthquake Activity

City Distance Mag. Time & Date
Minimum magnitude displayed is 2.5.

Coastal Water Temperatures

Place Temperature

Stations

Nearby Weather Stations

Station Location Temp. Windchill Dew Point Humidity Wind Precip. Elev Updated Type
                   

Watches & Warnings

Flood Warning
Issued: 8:29 PM CDT Aug. 31, 2016 – National Weather Service

The Flood Warning continues for
the Illinois River at La Salle.
* Until Friday morning.
* At 745 PM Wednesday the stage was 21.5 feet.
* Flood stage is 20.0 feet.
* Minor flooding is occurring and minor flooding is forecast.
* Forecast... the river will continue to fall to below flood stage by
Friday morning.
* Impact... at 21.0 feet... low lying agricultural areas from 6 miles
upstream to 12 miles downstream are flooded.


Lat... Lon 4137 8896 4135 8929 4126 8930 4128 8896